Time;durP1;ratioP1;P1;durP2;ratioP2;P2;SDS_P1;SDS_P2;PMS_P1;PMS_P2;Temp;Humidity;BMP_temperature;BMP_pressure;BME280_temperature;BME280_humidity;BME280_pressure;Samples;Min_cycle;Max_cycle;Signal;HPM_P1;HPM_P2
2022/11/12 00:00:11;;;;;;;8.88;7.57;;;;;;;4.80;100.00;102349.09;684177;28;1955;-70
2022/11/12 00:00:51;;;;;;;8.52;6.80;;;;;;;4.84;100.00;102345.84;683687;28;5476;-70
2022/11/12 00:01:30;;;;;;;9.13;6.85;;;;;;;4.91;100.00;102353.06;685161;28;1307;-69
2022/11/12 00:02:09;;;;;;;9.30;6.75;;;;;;;4.96;100.00;102351.59;684282;28;1235;-71
2022/11/12 00:02:48;;;;;;;8.23;6.60;;;;;;;4.91;100.00;102350.47;684849;28;1310;-69
2022/11/12 00:03:27;;;;;;;10.52;7.00;;;;;;;4.94;100.00;102350.63;685819;28;1271;-70
2022/11/12 00:04:08;;;;;;;8.93;6.80;;;;;;;5.02;100.00;102349.25;683203;28;4995;-70
2022/11/12 00:04:47;;;;;;;8.63;6.68;;;;;;;5.03;100.00;102348.44;684487;28;1264;-70
2022/11/12 00:05:26;;;;;;;9.45;6.80;;;;;;;4.93;100.00;102352.34;682402;28;2195;-70
2022/11/12 00:06:05;;;;;;;8.43;6.60;;;;;;;4.93;100.00;102347.16;684645;28;1199;-70
2022/11/12 00:06:44;;;;;;;9.52;7.00;;;;;;;4.91;100.00;102353.94;684255;28;4370;-69
2022/11/12 00:07:23;;;;;;;8.68;6.70;;;;;;;4.86;100.00;102351.97;684646;28;1188;-71
2022/11/12 00:08:03;;;;;;;9.93;7.43;;;;;;;4.84;100.00;102348.44;685090;28;1107;-69
2022/11/12 00:08:42;;;;;;;9.95;7.28;;;;;;;4.81;100.00;102350.91;684910;28;1223;-71
2022/11/12 00:09:21;;;;;;;10.02;7.30;;;;;;;4.84;100.00;102351.91;683889;28;1331;-70
2022/11/12 00:10:00;;;;;;;9.90;7.35;;;;;;;4.85;100.00;102348.50;684240;28;5713;-70
2022/11/12 00:10:39;;;;;;;10.15;7.10;;;;;;;4.85;100.00;102345.03;683905;28;1294;-71
2022/11/12 00:11:18;;;;;;;8.93;6.90;;;;;;;4.83;100.00;102349.25;685503;28;1163;-70
2022/11/12 00:11:57;;;;;;;9.27;7.45;;;;;;;4.78;100.00;102346.44;684130;28;1314;-70
2022/11/12 00:12:36;;;;;;;10.43;7.30;;;;;;;4.78;100.00;102346.44;685476;28;1107;-71
2022/11/12 00:13:15;;;;;;;8.82;6.85;;;;;;;4.81;100.00;102340.53;683360;28;5236;-69
2022/11/12 00:13:54;;;;;;;10.10;7.15;;;;;;;4.82;100.00;102344.88;683741;28;1821;-71
2022/11/12 00:14:33;;;;;;;8.30;6.63;;;;;;;4.81;100.00;102345.72;684945;28;989;-70
2022/11/12 00:15:12;;;;;;;9.05;7.30;;;;;;;4.85;100.00;102342.44;684157;28;1380;-70
2022/11/12 00:15:51;;;;;;;8.55;6.75;;;;;;;4.83;100.00;102339.78;685473;28;4345;-70
2022/11/12 00:16:30;;;;;;;9.10;6.88;;;;;;;4.81;100.00;102340.53;684935;28;1334;-70
2022/11/12 00:17:09;;;;;;;8.40;6.90;;;;;;;4.83;100.00;102342.38;684666;28;1378;-69
2022/11/12 00:17:49;;;;;;;8.60;6.93;;;;;;;4.85;100.00;102342.44;685406;28;1252;-71
2022/11/12 00:18:27;;;;;;;8.63;7.00;;;;;;;4.83;100.00;102344.97;685713;28;1262;-70
2022/11/12 00:19:06;;;;;;;10.15;6.97;;;;;;;4.83;100.00;102354.44;683274;28;5094;-69
2022/11/12 00:19:46;;;;;;;9.10;7.10;;;;;;;4.73;100.00;102343.63;685008;28;1903;-70
2022/11/12 00:20:24;;;;;;;8.10;6.80;;;;;;;4.67;100.00;102351.13;685165;28;1220;-69
2022/11/12 00:21:04;;;;;;;8.88;6.85;;;;;;;4.72;100.00;102352.25;685464;28;1186;-70
2022/11/12 00:21:43;;;;;;;9.07;6.50;;;;;;;4.85;100.00;102347.63;684741;28;4544;-70
2022/11/12 00:22:22;;;;;;;8.82;6.95;;;;;;;4.84;100.00;102351.03;684414;28;2029;-71
2022/11/12 00:23:02;;;;;;;8.65;6.90;;;;;;;4.73;100.00;102348.81;681420;28;1105;-71
2022/11/12 00:23:41;;;;;;;8.38;6.85;;;;;;;4.71;100.00;102349.59;681883;28;1176;-71
2022/11/12 00:24:20;;;;;;;9.25;7.03;;;;;;;4.78;100.00;102356.81;684268;28;1200;-70
2022/11/12 00:24:59;;;;;;;8.70;6.63;;;;;;;4.75;100.00;102352.38;687140;28;5097;-71
2022/11/12 00:25:38;;;;;;;8.93;6.75;;;;;;;4.70;100.00;102350.41;687738;28;1299;-70
2022/11/12 00:26:17;;;;;;;9.43;6.55;;;;;;;4.72;100.00;102351.34;687036;28;1191;-71
2022/11/12 00:26:56;;;;;;;9.70;6.78;;;;;;;4.75;100.00;102352.38;685475;28;1214;-70
2022/11/12 00:27:36;;;;;;;8.43;6.70;;;;;;;4.71;100.00;102353.06;685075;28;1132;-71
2022/11/12 00:28:14;;;;;;;8.90;6.72;;;;;;;4.64;100.00;102347.50;683588;28;5051;-71
2022/11/12 00:28:54;;;;;;;8.07;6.60;;;;;;;4.66;100.00;102353.66;685295;28;1226;-71
2022/11/12 00:29:33;;;;;;;8.63;6.70;;;;;;;4.64;100.00;102351.00;687227;28;1203;-71
2022/11/12 00:30:12;;;;;;;9.48;6.82;;;;;;;4.57;100.00;102356.72;687385;28;1182;-69
2022/11/12 00:30:51;;;;;;;9.20;6.60;;;;;;;4.62;100.00;102355.19;687135;28;4578;-70
2022/11/12 00:31:30;;;;;;;8.07;6.53;;;;;;;4.58;100.00;102343.81;685519;28;1112;-70
2022/11/12 00:32:10;;;;;;;9.05;6.57;;;;;;;4.50;100.00;102346.84;684905;28;1319;-71
2022/11/12 00:32:50;;;;;;;9.27;6.60;;;;;;;4.52;100.00;102355.59;684234;28;1176;-72
2022/11/12 00:33:28;;;;;;;8.27;6.43;;;;;;;4.57;100.00;102343.75;685619;28;1302;-70
2022/11/12 00:34:08;;;;;;;8.77;6.82;;;;;;;4.49;100.00;102350.28;684299;28;5077;-70
2022/11/12 00:34:46;;;;;;;8.48;6.35;;;;;;;4.49;100.00;102347.69;685392;28;1211;-69
2022/11/12 00:35:25;;;;;;;8.18;6.53;;;;;;;4.56;100.00;102349.75;686880;28;1229;-70
2022/11/12 00:36:05;;;;;;;8.27;6.57;;;;;;;4.51;100.00;102356.41;687303;28;1254;-68
2022/11/12 00:36:44;;;;;;;8.65;6.70;;;;;;;4.50;100.00;102350.34;687609;28;4345;-70
2022/11/12 00:37:24;;;;;;;7.75;6.28;;;;;;;4.51;100.00;102348.63;684632;28;1172;-70
2022/11/12 00:38:02;;;;;;;9.35;6.32;;;;;;;4.56;100.00;102349.75;685979;28;1146;-70
2022/11/12 00:38:41;;;;;;;7.30;6.18;;;;;;;4.68;100.00;102346.81;685195;28;1116;-70
2022/11/12 00:39:20;;;;;;;8.77;6.47;;;;;;;4.66;100.00;102349.34;685174;28;1115;-69
2022/11/12 00:39:59;;;;;;;7.88;6.18;;;;;;;4.58;100.00;102353.28;684109;28;4943;-70
2022/11/12 00:40:41;;;;;;;9.27;6.40;;;;;;;4.57;100.00;102351.53;685015;28;1203;-71
2022/11/12 00:41:19;;;;;;;9.50;6.57;;;;;;;4.63;100.00;102364.75;684880;28;1175;-69
2022/11/12 00:41:59;;;;;;;7.93;6.07;;;;;;;4.54;100.00;102353.94;686608;28;1187;-70
2022/11/12 00:42:38;;;;;;;7.57;6.30;;;;;;;4.46;100.00;102357.88;687462;28;4622;-70
2022/11/12 00:43:17;;;;;;;8.60;6.10;;;;;;;4.42;100.00;102357.75;686185;28;1135;-69
2022/11/12 00:43:56;;;;;;;7.70;6.47;;;;;;;4.53;100.00;102357.38;685595;28;1486;-69
2022/11/12 00:44:36;;;;;;;8.68;6.22;;;;;;;4.62;100.00;102370.75;685181;28;1179;-70
2022/11/12 00:45:15;;;;;;;8.38;6.40;;;;;;;4.53;100.00;102362.56;685716;28;1963;-70
2022/11/12 00:45:54;;;;;;;8.73;6.13;;;;;;;4.30;100.00;102372.69;682670;28;4364;-70
2022/11/12 00:46:33;;;;;;;8.45;6.40;;;;;;;4.27;100.00;102367.38;684621;28;1171;-69
2022/11/12 00:47:13;;;;;;;8.18;6.55;;;;;;;4.52;100.00;102359.06;684188;28;1154;-70
2022/11/12 00:47:55;;;;;;;10.02;6.22;;;;;;;4.64;100.00;102363.03;684603;28;1289;-69
2022/11/12 00:48:34;;;;;;;9.13;6.38;;;;;;;4.49;100.00;102368.41;682371;28;1222;-68
2022/11/12 00:49:13;;;;;;;9.25;7.00;;;;;;;4.50;100.00;102364.97;680990;28;4943;-69
2022/11/12 00:49:52;;;;;;;8.73;6.22;;;;;;;4.55;100.00;102363.50;681566;28;1261;-69
2022/11/12 00:50:31;;;;;;;7.80;5.85;;;;;;;4.42;100.00;102362.91;682584;28;1196;-69
2022/11/12 00:51:10;;;;;;;8.65;6.38;;;;;;;4.40;100.00;102367.16;680514;28;1344;-68
2022/11/12 00:51:50;;;;;;;8.57;6.50;;;;;;;4.37;100.00;102364.41;683488;28;4357;-69
2022/11/12 00:52:29;;;;;;;9.32;6.13;;;;;;;4.44;100.00;102365.59;685645;28;1299;-70
2022/11/12 00:53:08;;;;;;;9.27;6.47;;;;;;;4.53;100.00;102370.34;685430;28;1279;-69
2022/11/12 00:53:48;;;;;;;7.82;6.10;;;;;;;4.43;100.00;102380.25;684975;28;1330;-70
2022/11/12 00:54:27;;;;;;;9.07;6.20;;;;;;;4.35;100.00;102365.16;685238;28;1144;-70
2022/11/12 00:55:06;;;;;;;9.20;6.40;;;;;;;4.30;100.00;102371.81;684103;28;5006;-70
2022/11/12 00:55:45;;;;;;;8.82;6.05;;;;;;;4.38;100.00;102363.59;684314;28;1302;-69
2022/11/12 00:56:24;;;;;;;7.50;6.30;;;;;;;4.45;100.00;102366.50;685011;28;1041;-70
2022/11/12 00:57:03;;;;;;;8.43;6.15;;;;;;;4.36;100.00;102372.09;683964;28;1294;-69
2022/11/12 00:57:42;;;;;;;8.63;6.20;;;;;;;4.38;100.00;102361.00;683567;28;4449;-70
2022/11/12 00:58:21;;;;;;;10.32;6.80;;;;;;;4.43;100.00;102369.88;683597;28;1135;-69
2022/11/12 00:59:00;;;;;;;7.88;6.03;;;;;;;4.45;100.00;102371.66;684937;28;1351;-69
2022/11/12 00:59:39;;;;;;;8.27;6.18;;;;;;;4.43;100.00;102363.78;684852;28;1133;-68
2022/11/12 01:00:20;;;;;;;8.27;6.35;;;;;;;4.40;100.00;102364.56;683962;28;1167;-69
2022/11/12 01:01:13;;;;;;;7.97;6.18;;;;;;;4.36;100.00;102364.31;681758;28;4960;-70
2022/11/12 01:01:52;;;;;;;7.55;5.88;;;;;;;4.52;100.00;102364.25;683333;28;1311;-68
2022/11/12 01:02:31;;;;;;;8.38;5.75;;;;;;;4.64;100.00;102368.22;684774;28;1692;-69
2022/11/12 01:03:10;;;;;;;8.20;6.20;;;;;;;4.52;100.00;102374.59;684801;28;1586;-68
2022/11/12 01:03:49;;;;;;;8.77;6.00;;;;;;;4.44;100.00;102365.59;684904;28;4335;-70
2022/11/12 01:04:28;;;;;;;8.43;5.97;;;;;;;4.26;100.00;102368.19;685338;28;1326;-70
2022/11/12 01:05:08;;;;;;;7.30;5.80;;;;;;;4.33;100.00;102371.94;684287;28;1156;-69
2022/11/12 01:05:47;;;;;;;8.40;5.72;;;;;;;4.57;100.00;102370.53;684752;28;1347;-69
2022/11/12 01:06:26;;;;;;;7.35;5.50;;;;;;;4.57;100.00;102372.25;685043;28;1177;-70
2022/11/12 01:07:05;;;;;;;12.20;6.15;;;;;;;4.49;100.00;102365.81;685057;28;5728;-71
2022/11/12 01:07:44;;;;;;;8.82;6.22;;;;;;;4.42;100.00;102367.22;685062;28;1246;-69
2022/11/12 01:08:23;;;;;;;7.65;6.00;;;;;;;4.23;100.00;102373.22;685378;28;1168;-71
2022/11/12 01:09:02;;;;;;;9.20;5.80;;;;;;;4.34;100.00;102374.63;685199;28;1282;-70
2022/11/12 01:09:41;;;;;;;9.10;6.10;;;;;;;4.31;100.00;102373.59;681350;28;4547;-70
2022/11/12 01:10:21;;;;;;;8.52;5.80;;;;;;;4.30;100.00;102377.88;684321;28;1211;-69
2022/11/12 01:11:11;;;;;;;7.82;6.13;;;;;;;4.30;100.00;102371.81;685012;28;1362;-70
2022/11/12 01:11:50;;;;;;;7.90;5.88;;;;;;;4.40;100.00;102374.94;685442;28;1163;-69
2022/11/12 01:12:32;;;;;;;9.32;5.75;;;;;;;4.43;100.00;102364.69;684049;28;1326;-70
2022/11/12 01:13:12;;;;;;;7.85;5.97;;;;;;;4.33;100.00;102371.94;684202;28;5082;-69
2022/11/12 01:13:58;;;;;;;8.43;5.80;;;;;;;4.40;100.00;102372.34;685161;28;1012;-68
2022/11/12 01:14:37;;;;;;;7.80;5.85;;;;;;;4.40;100.00;102372.34;685977;28;1410;-69
2022/11/12 01:15:16;;;;;;;7.82;5.60;;;;;;;4.50;100.00;102370.16;685584;28;1338;-69
2022/11/12 01:15:55;;;;;;;7.60;5.60;;;;;;;4.61;100.00;102366.41;684269;28;4343;-69
2022/11/12 01:16:37;;;;;;;8.43;5.55;;;;;;;4.52;100.00;102371.13;685989;28;774;-69
2022/11/12 01:17:16;;;;;;;8.38;5.68;;;;;;;4.53;100.00;102375.50;685160;28;1223;-69
2022/11/12 01:17:55;;;;;;;7.45;5.65;;;;;;;4.56;100.00;102378.25;685334;28;1239;-69
2022/11/12 01:18:34;;;;;;;9.07;5.47;;;;;;;4.50;100.00;102371.06;685788;28;1271;-69
2022/11/12 01:19:13;;;;;;;8.25;5.70;;;;;;;4.58;100.00;102374.00;684723;28;5014;-70
2022/11/12 01:19:52;;;;;;;7.97;5.72;;;;;;;4.45;100.00;102376.84;684154;28;1359;-69
2022/11/12 01:20:31;;;;;;;8.82;5.60;;;;;;;4.51;100.00;102377.13;684426;28;1096;-69
2022/11/12 01:21:11;;;;;;;7.70;5.60;;;;;;;4.63;100.00;102374.25;684285;28;1238;-68
2022/11/12 01:21:50;;;;;;;7.57;5.90;;;;;;;4.64;100.00;102374.31;684104;28;4342;-68
2022/11/12 01:22:29;;;;;;;8.20;5.60;;;;;;;4.56;100.00;102375.66;685609;28;1437;-69
2022/11/12 01:23:08;;;;;;;8.30;5.72;;;;;;;4.67;100.00;102373.56;684373;28;1378;-68
2022/11/12 01:23:47;;;;;;;7.97;5.65;;;;;;;4.68;100.00;102372.72;685227;28;1417;-70
2022/11/12 01:24:26;;;;;;;7.35;5.65;;;;;;;4.47;100.00;102364.84;685292;28;1206;-69
2022/11/12 01:25:06;;;;;;;8.98;5.90;;;;;;;4.47;100.00;102375.19;684916;28;5042;-69
2022/11/12 01:25:45;;;;;;;7.20;5.57;;;;;;;4.39;100.00;102367.09;684514;28;1330;-70
2022/11/12 01:26:27;;;;;;;8.27;5.70;;;;;;;4.32;100.00;102370.16;684085;28;1105;-68
2022/11/12 01:27:06;;;;;;;9.02;6.20;;;;;;;4.35;100.00;102370.34;685368;28;1172;-69
2022/11/12 01:27:45;;;;;;;9.38;6.07;;;;;;;4.36;100.00;102365.22;684220;28;4295;-69
2022/11/12 01:28:24;;;;;;;8.38;5.90;;;;;;;4.45;100.00;102363.91;684917;28;1164;-70
2022/11/12 01:29:04;;;;;;;8.75;5.80;;;;;;;4.46;100.00;102368.25;684700;28;1275;-69
2022/11/12 01:29:42;;;;;;;7.32;5.75;;;;;;;4.39;100.00;102375.72;685288;28;1381;-70
2022/11/12 01:30:22;;;;;;;8.55;6.25;;;;;;;4.30;100.00;102372.69;686974;28;1136;-69
2022/11/12 01:31:18;;;;;;;7.20;5.50;;;;;;;4.32;100.00;102367.56;685316;28;5101;-70
2022/11/12 01:31:57;;;;;;;9.77;6.57;;;;;;;4.23;100.00;102366.31;685311;28;1152;-70
2022/11/12 01:32:37;;;;;;;7.95;5.93;;;;;;;4.32;100.00;102367.56;685175;28;1212;-68
2022/11/12 01:33:16;;;;;;;8.00;5.88;;;;;;;4.32;100.00;102370.16;685100;28;1281;-70
2022/11/12 01:33:57;;;;;;;8.20;5.57;;;;;;;4.40;100.00;102369.75;684618;28;4511;-70
2022/11/12 01:34:36;;;;;;;8.18;5.93;;;;;;;4.37;100.00;102371.28;687447;28;1282;-69
2022/11/12 01:35:15;;;;;;;7.38;6.13;;;;;;;4.39;100.00;102367.97;687709;28;1115;-69
2022/11/12 01:35:57;;;;;;;7.65;5.88;;;;;;;4.29;100.00;102365.72;686339;28;1083;-68
2022/11/12 01:36:38;;;;;;;7.78;5.55;;;;;;;4.30;100.00;102362.34;684798;28;1151;-70
2022/11/12 01:37:17;;;;;;;9.30;5.70;;;;;;;4.27;100.00;102367.38;683580;28;5126;-69
2022/11/12 01:37:56;;;;;;;8.20;5.68;;;;;;;4.33;100.00;102362.47;684476;28;1317;-69
2022/11/12 01:38:36;;;;;;;9.05;6.10;;;;;;;4.36;100.00;102357.47;684991;28;1431;-69
2022/11/12 01:39:15;;;;;;;9.57;6.00;;;;;;;4.39;100.00;102362.78;685051;28;1151;-69
2022/11/12 01:39:54;;;;;;;8.52;6.30;;;;;;;4.23;100.00;102366.31;683447;28;4372;-67
2022/11/12 01:40:33;;;;;;;7.07;5.50;;;;;;;4.18;100.00;102372.09;684985;28;1254;-69
2022/11/12 01:41:20;;;;;;;9.90;5.88;;;;;;;4.26;100.00;102360.41;684375;28;1162;-68
2022/11/12 01:41:59;;;;;;;8.25;5.95;;;;;;;4.29;100.00;102364.84;685677;28;1244;-70
2022/11/12 01:42:38;;;;;;;7.93;5.95;;;;;;;4.23;100.00;102357.69;684207;28;4319;-70
2022/11/12 01:43:17;;;;;;;7.90;5.75;;;;;;;4.22;100.00;102363.66;687331;28;1371;-69
2022/11/12 01:44:19;;;;;;;8.35;5.63;;;;;;;4.15;100.00;102374.53;685162;28;1239;-71
2022/11/12 01:44:58;;;;;;;8.48;5.88;;;;;;;4.18;100.00;102364.31;685049;28;1542;-70
2022/11/12 01:45:41;;;;;;;8.02;5.80;;;;;;;4.02;100.00;102375.63;684225;28;4698;-70
2022/11/12 01:46:27;;;;;;;8.25;5.72;;;;;;;4.17;100.00;102368.63;684638;28;1045;-69
2022/11/12 01:47:26;;;;;;;7.85;5.65;;;;;;;4.15;100.00;102375.41;687632;28;1585;-69
2022/11/12 01:48:12;;;;;;;7.82;5.95;;;;;;;4.06;100.00;102372.41;687320;28;1386;-69
2022/11/12 01:49:01;;;;;;;8.23;5.70;;;;;;;4.15;100.00;102367.66;684670;28;4493;-69
2022/11/12 01:49:49;;;;;;;8.02;5.75;;;;;;;3.99;100.00;102366.03;684882;28;1187;-69
2022/11/12 01:50:32;;;;;;;8.55;5.88;;;;;;;4.05;100.00;102370.59;685281;28;1325;-70
2022/11/12 01:51:13;;;;;;;8.32;5.70;;;;;;;4.03;100.00;102367.94;684263;28;1096;-68
2022/11/12 01:51:56;;;;;;;8.13;5.75;;;;;;;3.99;100.00;102365.13;683243;28;4966;-70
2022/11/12 01:52:41;;;;;;;8.20;5.70;;;;;;;4.30;100.00;102362.34;681630;28;1307;-69
2022/11/12 01:53:24;;;;;;;6.75;5.10;;;;;;;4.20;100.00;102365.31;683115;28;1128;-69
2022/11/12 01:54:08;;;;;;;7.68;5.60;;;;;;;4.26;100.00;102357.81;683921;28;1246;-70
2022/11/12 01:54:51;;;;;;;8.10;5.63;;;;;;;4.23;100.00;102360.25;681774;28;4349;-70
2022/11/12 01:55:35;;;;;;;9.02;5.88;;;;;;;4.14;100.00;102365.91;679885;28;1430;-69
2022/11/12 01:56:16;;;;;;;8.55;5.75;;;;;;;4.14;100.00;102367.56;682486;28;1151;-70
2022/11/12 01:56:57;;;;;;;8.15;5.47;;;;;;;4.07;100.00;102362.13;681543;28;1197;-71
2022/11/12 01:57:41;;;;;;;8.35;5.60;;;;;;;4.14;100.00;102370.16;682566;28;1208;-70
2022/11/12 01:58:25;;;;;;;8.05;5.70;;;;;;;4.14;100.00;102354.63;684420;28;5010;-69
2022/11/12 01:59:13;;;;;;;7.75;5.60;;;;;;;4.05;100.00;102362.84;685417;28;1540;-70
2022/11/12 02:00:04;;;;;;;8.02;5.90;;;;;;;4.25;100.00;102358.63;681530;28;1262;-69
2022/11/12 02:00:44;;;;;;;7.70;5.50;;;;;;;4.27;100.00;102362.19;683311;28;4403;-70
2022/11/12 02:01:24;;;;;;;8.35;5.47;;;;;;;4.21;100.00;102356.69;684778;28;1120;-70
2022/11/12 02:02:03;;;;;;;8.23;5.30;;;;;;;4.13;100.00;102364.13;684596;28;1069;-70
2022/11/12 02:02:50;;;;;;;7.78;5.65;;;;;;;4.12;100.00;102353.69;684934;28;1242;-69
2022/11/12 02:03:30;;;;;;;8.13;5.68;;;;;;;4.10;100.00;102358.78;685726;28;1007;-70
2022/11/12 02:04:10;;;;;;;7.38;5.03;;;;;;;4.28;100.00;102358.78;684831;28;5103;-69
2022/11/12 02:04:50;;;;;;;8.20;5.40;;;;;;;4.28;100.00;102355.31;685196;28;1283;-70
2022/11/12 02:05:30;;;;;;;8.60;5.43;;;;;;;4.09;100.00;102357.88;684657;28;1975;-70
2022/11/12 02:06:13;;;;;;;7.75;5.78;;;;;;;4.14;100.00;102354.63;685118;28;1454;-69
2022/11/12 02:06:55;;;;;;;8.30;5.35;;;;;;;4.12;100.00;102351.09;684359;28;4332;-70
2022/11/12 02:07:36;;;;;;;7.72;5.63;;;;;;;4.13;100.00;102347.69;682829;28;1259;-69
2022/11/12 02:08:16;;;;;;;7.47;5.28;;;;;;;4.09;100.00;102355.28;682390;28;1038;-70
2022/11/12 02:08:55;;;;;;;7.45;5.63;;;;;;;4.06;100.00;102355.16;684454;28;1121;-70
2022/11/12 02:09:35;;;;;;;7.88;5.40;;;;;;;4.15;100.00;102351.25;687913;28;1199;-70
2022/11/12 02:10:14;;;;;;;7.78;5.45;;;;;;;3.98;100.00;102351.28;683988;28;5105;-70
2022/11/12 02:10:53;;;;;;;8.45;5.50;;;;;;;4.00;100.00;102348.78;683822;28;1315;-70
2022/11/12 02:11:32;;;;;;;8.48;5.45;;;;;;;4.00;100.00;102351.38;683825;28;1211;-70
2022/11/12 02:13:56;;;;;;;7.70;5.05;;;;;;;4.00;100.00;102353.97;684299;28;1057;-69
2022/11/12 02:14:12;;;;;;;7.43;5.50;;;;;;;4.09;100.00;102347.53;684398;28;1145;-69
2022/11/12 02:14:53;;;;;;;8.05;5.20;;;;;;;4.00;100.00;102346.19;684879;28;1196;-70
2022/11/12 02:15:32;;;;;;;7.80;5.20;;;;;;;4.09;100.00;102355.28;687278;28;1309;-68
2022/11/12 02:16:11;;;;;;;7.00;5.25;;;;;;;4.09;100.00;102355.28;686557;28;5044;-70
2022/11/12 02:16:50;;;;;;;7.82;5.32;;;;;;;4.16;100.00;102359.06;687739;28;1230;-69
2022/11/12 02:17:29;;;;;;;7.60;5.03;;;;;;;4.19;100.00;102353.16;685343;28;1298;-70
2022/11/12 02:18:08;;;;;;;7.85;5.40;;;;;;;4.06;100.00;102357.75;685179;28;1048;-69
2022/11/12 02:18:47;;;;;;;7.70;5.40;;;;;;;4.15;100.00;102356.41;684743;28;4299;-70
2022/11/12 02:19:26;;;;;;;7.80;5.45;;;;;;;4.06;100.00;102357.75;684226;28;1252;-70
2022/11/12 02:20:09;;;;;;;8.70;5.55;;;;;;;3.97;100.00;102352.09;685570;28;1200;-70
2022/11/12 02:20:54;;;;;;;7.03;5.07;;;;;;;3.93;100.00;102355.34;685475;28;1246;-71
2022/11/12 02:21:34;;;;;;;8.50;5.35;;;;;;;3.89;100.00;102356.00;683640;28;1097;-69
2022/11/12 02:22:13;;;;;;;8.55;5.20;;;;;;;3.94;100.00;102359.72;683207;28;5059;-69
2022/11/12 02:22:52;;;;;;;7.80;5.40;;;;;;;3.97;100.00;102352.09;684776;28;1364;-70
2022/11/12 02:23:31;;;;;;;6.90;5.03;;;;;;;4.03;100.00;102356.69;684676;28;1065;-70
2022/11/12 02:24:10;;;;;;;7.50;5.40;;;;;;;4.09;100.00;102355.28;684396;28;985;-69
2022/11/12 02:24:49;;;;;;;7.68;5.28;;;;;;;3.99;100.00;102350.50;684602;28;4284;-70
2022/11/12 02:25:29;;;;;;;7.40;5.20;;;;;;;4.01;100.00;102354.03;684971;28;1910;-70
2022/11/12 02:26:08;;;;;;;7.75;5.43;;;;;;;4.06;100.00;102352.56;683581;28;1467;-70
2022/11/12 02:26:50;;;;;;;7.03;5.35;;;;;;;3.99;100.00;102350.50;685484;28;1208;-70
2022/11/12 02:27:29;;;;;;;7.55;5.40;;;;;;;4.01;100.00;102347.97;687295;28;1214;-70
2022/11/12 02:28:08;;;;;;;8.25;5.00;;;;;;;4.05;100.00;102343.00;684030;28;4981;-69
2022/11/12 02:28:47;;;;;;;7.65;5.22;;;;;;;4.10;100.00;102353.63;683186;28;1211;-70
2022/11/12 02:29:26;;;;;;;6.78;5.00;;;;;;;4.18;100.00;102349.69;684336;28;1147;-69
2022/11/12 02:30:06;;;;;;;7.50;5.10;;;;;;;4.25;100.00;102348.28;685209;28;1160;-70
2022/11/12 02:30:48;;;;;;;7.03;4.97;;;;;;;4.30;100.00;102351.97;683895;28;4401;-69
2022/11/12 02:31:27;;;;;;;8.27;4.78;;;;;;;4.36;100.00;102347.09;686040;28;1076;-69
2022/11/12 02:32:06;;;;;;;6.78;5.18;;;;;;;4.36;100.00;102347.09;684484;28;1160;-69
2022/11/12 02:32:45;;;;;;;7.05;5.18;;;;;;;4.37;100.00;102351.44;684589;28;1188;-69
2022/11/12 02:33:24;;;;;;;7.70;5.03;;;;;;;4.34;100.00;102348.72;684519;28;944;-68
2022/11/12 02:34:03;;;;;;;8.40;4.90;;;;;;;4.32;100.00;102349.47;684128;28;5201;-69
2022/11/12 02:34:42;;;;;;;8.50;5.30;;;;;;;4.29;100.00;102357.09;684141;28;1113;-68
2022/11/12 02:35:21;;;;;;;7.60;5.38;;;;;;;4.33;100.00;102354.69;686468;28;988;-69
2022/11/12 02:36:00;;;;;;;7.43;5.20;;;;;;;4.37;100.00;102345.41;684402;28;922;-70
2022/11/12 02:36:39;;;;;;;7.00;4.90;;;;;;;4.45;100.00;102357.00;685244;28;4318;-69
2022/11/12 02:37:18;;;;;;;6.78;4.85;;;;;;;4.43;100.00;102354.34;684351;28;969;-70
2022/11/12 02:37:57;;;;;;;6.78;4.75;;;;;;;4.47;100.00;102351.91;684397;28;1240;-70
2022/11/12 02:38:36;;;;;;;7.55;5.20;;;;;;;4.43;100.00;102351.75;684739;28;1323;-70
2022/11/12 02:39:15;;;;;;;7.50;4.82;;;;;;;4.43;100.00;102349.16;686531;28;1019;-70
2022/11/12 02:39:54;;;;;;;7.57;5.13;;;;;;;4.53;100.00;102354.78;684356;28;4302;-69
2022/11/12 02:40:33;;;;;;;7.22;4.80;;;;;;;4.46;100.00;102355.28;684000;28;1009;-69
2022/11/12 02:41:12;;;;;;;6.65;4.80;;;;;;;4.42;100.00;102351.69;684127;28;1045;-69
2022/11/12 02:41:51;;;;;;;7.30;5.10;;;;;;;4.46;100.00;102352.69;685646;28;1298;-69
2022/11/12 02:42:30;;;;;;;8.30;5.10;;;;;;;4.42;100.00;102356.88;684927;28;1108;-69
2022/11/12 02:43:09;;;;;;;6.35;4.90;;;;;;;4.46;100.00;102360.47;683453;28;5631;-69
2022/11/12 02:43:48;;;;;;;6.85;4.90;;;;;;;4.40;100.00;102359.38;685083;28;1045;-68
2022/11/12 02:44:28;;;;;;;7.70;5.13;;;;;;;4.42;100.00;102357.75;684265;28;1080;-69
2022/11/12 02:45:08;;;;;;;7.03;4.85;;;;;;;4.35;100.00;102353.09;685034;28;1144;-70
2022/11/12 02:45:47;;;;;;;7.72;5.38;;;;;;;4.24;100.00;102351.69;684055;28;4373;-70
2022/11/12 02:46:26;;;;;;;8.23;5.18;;;;;;;4.24;100.00;102357.75;684686;28;1042;-70
2022/11/12 02:47:05;;;;;;;8.43;5.30;;;;;;;4.36;100.00;102348.78;684698;28;927;-69
2022/11/12 02:47:44;;;;;;;6.70;4.70;;;;;;;4.35;100.00;102352.22;684727;28;978;-69
2022/11/12 02:48:23;;;;;;;6.55;5.00;;;;;;;4.32;100.00;102354.63;684045;28;981;-69
2022/11/12 02:49:02;;;;;;;7.60;4.95;;;;;;;4.42;100.00;102349.97;684573;28;4993;-69
2022/11/12 02:49:43;;;;;;;7.20;4.90;;;;;;;4.48;100.00;102361.44;684389;28;1014;-70
2022/11/12 02:50:22;;;;;;;7.07;4.90;;;;;;;4.48;100.00;102354.56;684463;28;901;-68
2022/11/12 02:51:01;;;;;;;7.43;5.05;;;;;;;4.46;100.00;102353.59;685210;28;1009;-70
2022/11/12 02:51:41;;;;;;;7.28;4.68;;;;;;;4.48;100.00;102351.09;683079;28;4348;-69
2022/11/12 02:52:20;;;;;;;7.25;4.85;;;;;;;4.45;100.00;102354.41;683434;28;1159;-70
2022/11/12 02:52:59;;;;;;;7.47;4.75;;;;;;;4.50;100.00;102358.13;680892;28;1054;-70
2022/11/12 02:53:38;;;;;;;7.40;4.80;;;;;;;4.50;100.00;102359.81;685025;28;930;-69
2022/11/12 02:54:17;;;;;;;6.22;4.80;;;;;;;4.45;100.00;102362.19;685397;28;848;-69
2022/11/12 02:54:56;;;;;;;7.50;4.70;;;;;;;4.49;100.00;102358.06;680811;28;4455;-70
2022/11/12 02:55:35;;;;;;;6.85;4.93;;;;;;;4.54;100.00;102356.53;681138;28;1072;-69
2022/11/12 02:56:14;;;;;;;6.55;4.85;;;;;;;4.53;100.00;102359.97;681727;28;854;-70
2022/11/12 02:56:53;;;;;;;6.50;4.53;;;;;;;4.55;100.00;102358.31;681902;28;1177;-69
2022/11/12 02:57:32;;;;;;;6.80;4.60;;;;;;;4.56;100.00;102362.69;681941;28;992;-68
2022/11/12 02:58:11;;;;;;;7.18;4.72;;;;;;;4.55;100.00;102353.16;684049;28;5019;-68
2022/11/12 02:58:52;;;;;;;6.53;4.93;;;;;;;4.52;100.00;102359.06;685302;28;1108;-69
2022/11/12 02:59:31;;;;;;;7.07;4.95;;;;;;;4.50;100.00;102359.81;684883;28;1147;-69
2022/11/12 03:00:12;;;;;;;7.43;4.75;;;;;;;4.54;100.00;102351.38;684693;28;1119;-69
2022/11/12 03:00:51;;;;;;;6.63;4.75;;;;;;;4.53;100.00;102354.78;684049;28;4312;-69
2022/11/12 03:01:30;;;;;;;6.85;4.68;;;;;;;4.54;100.00;102359.13;684474;28;1042;-70
2022/11/12 03:02:09;;;;;;;6.78;4.70;;;;;;;4.43;100.00;102354.34;684315;28;1155;-69
2022/11/12 03:03:01;;;;;;;6.15;4.68;;;;;;;4.42;100.00;102354.28;684710;28;1097;-68
2022/11/12 03:03:40;;;;;;;6.65;4.60;;;;;;;4.43;100.00;102349.16;683636;28;4519;-70
2022/11/12 03:04:19;;;;;;;6.65;4.60;;;;;;;4.43;100.00;102343.09;681700;28;902;-71
2022/11/12 03:04:58;;;;;;;7.30;4.63;;;;;;;4.49;100.00;102356.34;682957;28;989;-69
2022/11/12 03:05:37;;;;;;;7.43;4.53;;;;;;;4.47;100.00;102345.00;680703;28;2010;-70
2022/11/12 03:06:16;;;;;;;6.97;4.60;;;;;;;4.45;100.00;102345.78;681387;28;858;-70
2022/11/12 03:06:55;;;;;;;7.20;4.75;;;;;;;4.49;100.00;102350.28;680450;28;4458;-70
2022/11/12 03:07:35;;;;;;;7.32;4.57;;;;;;;4.51;100.00;102348.63;680368;28;961;-69
2022/11/12 03:08:14;;;;;;;6.53;4.55;;;;;;;4.45;100.00;102341.47;681883;28;838;-70
2022/11/12 03:08:53;;;;;;;7.20;4.43;;;;;;;4.40;100.00;102342.94;682257;28;3434;-70
2022/11/12 03:09:32;;;;;;;7.70;4.78;;;;;;;4.36;100.00;102351.38;681863;28;1222;-71
2022/11/12 03:10:11;;;;;;;6.57;4.38;;;;;;;4.37;100.00;102353.16;686642;28;5013;-70
2022/11/12 03:10:51;;;;;;;7.03;4.80;;;;;;;4.33;100.00;102346.06;687031;28;1036;-68
2022/11/12 03:11:30;;;;;;;7.28;4.72;;;;;;;4.32;100.00;102352.94;687737;28;1310;-69
2022/11/12 03:12:09;;;;;;;6.40;4.60;;;;;;;4.37;100.00;102354.03;685101;28;1071;-69